sensor_id;sensor_type;location;lat;lon;timestamp;temperature;humidity
14709;DHT22;7445;50.774;4.944;2022-07-10T00:00:30;14.90;99.90
14709;DHT22;7445;50.774;4.944;2022-07-10T00:02:57;14.90;99.90
14709;DHT22;7445;50.774;4.944;2022-07-10T00:05:23;14.90;99.90
14709;DHT22;7445;50.774;4.944;2022-07-10T00:07:49;14.90;99.90
14709;DHT22;7445;50.774;4.944;2022-07-10T00:10:19;14.80;99.90
14709;DHT22;7445;50.774;4.944;2022-07-10T00:12:45;14.80;99.90
14709;DHT22;7445;50.774;4.944;2022-07-10T00:15:12;14.90;99.90
14709;DHT22;7445;50.774;4.944;2022-07-10T00:17:38;14.80;99.90
14709;DHT22;7445;50.774;4.944;2022-07-10T00:20:06;14.80;99.90
14709;DHT22;7445;50.774;4.944;2022-07-10T00:22:34;14.70;99.90
14709;DHT22;7445;50.774;4.944;2022-07-10T00:25:03;14.70;99.90
14709;DHT22;7445;50.774;4.944;2022-07-10T00:27:29;14.70;99.90
14709;DHT22;7445;50.774;4.944;2022-07-10T00:29:55;14.70;99.90
14709;DHT22;7445;50.774;4.944;2022-07-10T00:32:21;14.70;99.90
14709;DHT22;7445;50.774;4.944;2022-07-10T00:34:47;14.60;99.90
14709;DHT22;7445;50.774;4.944;2022-07-10T00:37:12;14.70;99.90
14709;DHT22;7445;50.774;4.944;2022-07-10T00:39:38;14.60;99.90
14709;DHT22;7445;50.774;4.944;2022-07-10T00:42:11;14.50;99.90
14709;DHT22;7445;50.774;4.944;2022-07-10T00:44:39;14.40;99.90
14709;DHT22;7445;50.774;4.944;2022-07-10T00:47:06;14.30;99.90
14709;DHT22;7445;50.774;4.944;2022-07-10T00:49:34;14.20;99.90
14709;DHT22;7445;50.774;4.944;2022-07-10T00:52:02;14.10;99.90
14709;DHT22;7445;50.774;4.944;2022-07-10T00:54:33;14.10;99.90
14709;DHT22;7445;50.774;4.944;2022-07-10T00:56:59;14.00;99.90
14709;DHT22;7445;50.774;4.944;2022-07-10T00:59:26;14.10;99.90
14709;DHT22;7445;50.774;4.944;2022-07-10T01:01:53;14.10;99.90
14709;DHT22;7445;50.774;4.944;2022-07-10T01:04:19;14.20;99.90
14709;DHT22;7445;50.774;4.944;2022-07-10T01:06:44;14.30;99.90
14709;DHT22;7445;50.774;4.944;2022-07-10T01:09:10;14.20;99.90
14709;DHT22;7445;50.774;4.944;2022-07-10T01:11:37;14.20;99.90
14709;DHT22;7445;50.774;4.944;2022-07-10T01:14:04;14.10;99.90
14709;DHT22;7445;50.774;4.944;2022-07-10T01:16:31;14.20;99.90
14709;DHT22;7445;50.774;4.944;2022-07-10T01:18:57;14.10;99.90
14709;DHT22;7445;50.774;4.944;2022-07-10T01:21:27;14.20;99.90
14709;DHT22;7445;50.774;4.944;2022-07-10T01:23:54;14.10;99.90
14709;DHT22;7445;50.774;4.944;2022-07-10T01:26:21;14.00;99.90
14709;DHT22;7445;50.774;4.944;2022-07-10T01:28:49;14.10;99.90
14709;DHT22;7445;50.774;4.944;2022-07-10T01:31:17;14.00;99.90
14709;DHT22;7445;50.774;4.944;2022-07-10T01:33:43;14.10;99.90
14709;DHT22;7445;50.774;4.944;2022-07-10T01:36:10;14.10;99.90
14709;DHT22;7445;50.774;4.944;2022-07-10T01:38:36;14.10;99.90
14709;DHT22;7445;50.774;4.944;2022-07-10T01:41:01;14.10;99.90
14709;DHT22;7445;50.774;4.944;2022-07-10T01:43:27;14.00;99.90
14709;DHT22;7445;50.774;4.944;2022-07-10T01:45:53;13.90;99.90
14709;DHT22;7445;50.774;4.944;2022-07-10T01:48:18;14.00;99.90
14709;DHT22;7445;50.774;4.944;2022-07-10T01:50:44;14.00;99.90
14709;DHT22;7445;50.774;4.944;2022-07-10T01:53:09;14.00;99.90
14709;DHT22;7445;50.774;4.944;2022-07-10T01:55:36;14.00;99.90
14709;DHT22;7445;50.774;4.944;2022-07-10T01:58:02;14.00;99.90
14709;DHT22;7445;50.774;4.944;2022-07-10T02:00:28;14.00;99.90
14709;DHT22;7445;50.774;4.944;2022-07-10T02:02:53;13.90;99.90
14709;DHT22;7445;50.774;4.944;2022-07-10T02:05:37;13.80;99.90
14709;DHT22;7445;50.774;4.944;2022-07-10T02:08:03;13.80;99.90
14709;DHT22;7445;50.774;4.944;2022-07-10T02:10:31;13.80;99.90
14709;DHT22;7445;50.774;4.944;2022-07-10T02:12:57;13.80;99.90
14709;DHT22;7445;50.774;4.944;2022-07-10T02:15:23;13.80;99.90
14709;DHT22;7445;50.774;4.944;2022-07-10T02:17:49;13.80;99.90
14709;DHT22;7445;50.774;4.944;2022-07-10T02:20:14;13.80;99.90
14709;DHT22;7445;50.774;4.944;2022-07-10T02:22:41;13.80;99.90
14709;DHT22;7445;50.774;4.944;2022-07-10T02:25:07;13.80;99.90
14709;DHT22;7445;50.774;4.944;2022-07-10T02:27:32;13.80;99.90
14709;DHT22;7445;50.774;4.944;2022-07-10T02:29:58;13.80;99.90
14709;DHT22;7445;50.774;4.944;2022-07-10T02:32:24;13.80;99.90
14709;DHT22;7445;50.774;4.944;2022-07-10T02:34:49;13.70;99.90
14709;DHT22;7445;50.774;4.944;2022-07-10T02:37:15;13.70;99.90
14709;DHT22;7445;50.774;4.944;2022-07-10T02:39:40;13.60;99.90
14709;DHT22;7445;50.774;4.944;2022-07-10T02:42:06;13.70;99.90
14709;DHT22;7445;50.774;4.944;2022-07-10T02:44:32;13.70;99.90
14709;DHT22;7445;50.774;4.944;2022-07-10T02:46:57;13.80;99.90
14709;DHT22;7445;50.774;4.944;2022-07-10T02:49:23;13.70;99.90
14709;DHT22;7445;50.774;4.944;2022-07-10T02:51:49;13.70;99.90
14709;DHT22;7445;50.774;4.944;2022-07-10T02:54:16;13.70;99.90
14709;DHT22;7445;50.774;4.944;2022-07-10T02:56:41;13.70;99.90
14709;DHT22;7445;50.774;4.944;2022-07-10T02:59:07;13.60;99.90
14709;DHT22;7445;50.774;4.944;2022-07-10T03:01:33;13.60;99.90
14709;DHT22;7445;50.774;4.944;2022-07-10T03:03:58;13.60;99.90
14709;DHT22;7445;50.774;4.944;2022-07-10T03:06:24;13.60;99.90
14709;DHT22;7445;50.774;4.944;2022-07-10T03:08:50;13.60;99.90
14709;DHT22;7445;50.774;4.944;2022-07-10T03:11:15;13.60;99.90
14709;DHT22;7445;50.774;4.944;2022-07-10T03:13:43;13.50;99.90
14709;DHT22;7445;50.774;4.944;2022-07-10T03:16:08;13.60;99.90
14709;DHT22;7445;50.774;4.944;2022-07-10T03:18:34;13.60;99.90
14709;DHT22;7445;50.774;4.944;2022-07-10T03:20:59;13.40;99.90
14709;DHT22;7445;50.774;4.944;2022-07-10T03:23:25;13.40;99.90
14709;DHT22;7445;50.774;4.944;2022-07-10T03:25:51;13.30;99.90
14709;DHT22;7445;50.774;4.944;2022-07-10T03:28:17;13.20;99.90
14709;DHT22;7445;50.774;4.944;2022-07-10T03:30:42;13.10;99.90
14709;DHT22;7445;50.774;4.944;2022-07-10T03:33:08;13.00;99.90
14709;DHT22;7445;50.774;4.944;2022-07-10T03:35:33;13.00;99.90
14709;DHT22;7445;50.774;4.944;2022-07-10T03:37:59;13.00;99.90
14709;DHT22;7445;50.774;4.944;2022-07-10T03:40:25;13.00;99.90
14709;DHT22;7445;50.774;4.944;2022-07-10T03:42:51;12.90;99.90
14709;DHT22;7445;50.774;4.944;2022-07-10T03:45:17;12.90;99.90
14709;DHT22;7445;50.774;4.944;2022-07-10T03:47:43;12.90;99.90
14709;DHT22;7445;50.774;4.944;2022-07-10T03:50:09;12.90;99.90
14709;DHT22;7445;50.774;4.944;2022-07-10T03:52:35;13.00;99.90
14709;DHT22;7445;50.774;4.944;2022-07-10T03:55:01;13.00;99.90
14709;DHT22;7445;50.774;4.944;2022-07-10T03:57:26;13.00;99.90
14709;DHT22;7445;50.774;4.944;2022-07-10T04:00:11;13.00;99.90
14709;DHT22;7445;50.774;4.944;2022-07-10T04:02:37;13.10;99.90
14709;DHT22;7445;50.774;4.944;2022-07-10T04:05:05;13.10;99.90
14709;DHT22;7445;50.774;4.944;2022-07-10T04:07:31;13.10;99.90
14709;DHT22;7445;50.774;4.944;2022-07-10T04:09:57;13.20;99.90
14709;DHT22;7445;50.774;4.944;2022-07-10T04:12:23;13.30;99.90
14709;DHT22;7445;50.774;4.944;2022-07-10T04:14:48;13.20;99.90
14709;DHT22;7445;50.774;4.944;2022-07-10T04:17:17;13.30;99.90
14709;DHT22;7445;50.774;4.944;2022-07-10T04:19:43;13.30;99.90
14709;DHT22;7445;50.774;4.944;2022-07-10T04:22:09;13.40;99.90
14709;DHT22;7445;50.774;4.944;2022-07-10T04:24:34;13.40;99.90
14709;DHT22;7445;50.774;4.944;2022-07-10T04:27:00;13.40;99.90
14709;DHT22;7445;50.774;4.944;2022-07-10T04:29:26;13.40;99.90
14709;DHT22;7445;50.774;4.944;2022-07-10T04:31:52;13.40;99.90
14709;DHT22;7445;50.774;4.944;2022-07-10T04:34:17;13.50;99.90
14709;DHT22;7445;50.774;4.944;2022-07-10T04:36:43;13.60;99.90
14709;DHT22;7445;50.774;4.944;2022-07-10T04:39:09;13.60;99.90
14709;DHT22;7445;50.774;4.944;2022-07-10T04:41:34;13.70;99.90
14709;DHT22;7445;50.774;4.944;2022-07-10T04:44:00;13.70;99.90
14709;DHT22;7445;50.774;4.944;2022-07-10T04:46:26;13.80;99.90
14709;DHT22;7445;50.774;4.944;2022-07-10T04:48:52;13.80;99.90
14709;DHT22;7445;50.774;4.944;2022-07-10T04:51:18;13.80;99.90
14709;DHT22;7445;50.774;4.944;2022-07-10T04:53:43;13.80;99.90
14709;DHT22;7445;50.774;4.944;2022-07-10T04:56:09;13.90;99.90
14709;DHT22;7445;50.774;4.944;2022-07-10T04:58:35;13.80;99.90
14709;DHT22;7445;50.774;4.944;2022-07-10T05:01:00;13.90;99.90
14709;DHT22;7445;50.774;4.944;2022-07-10T05:03:28;14.00;99.90
14709;DHT22;7445;50.774;4.944;2022-07-10T05:05:54;14.10;99.90
14709;DHT22;7445;50.774;4.944;2022-07-10T05:08:19;14.30;99.90
14709;DHT22;7445;50.774;4.944;2022-07-10T05:10:45;14.40;99.90
14709;DHT22;7445;50.774;4.944;2022-07-10T05:13:11;14.70;99.90
14709;DHT22;7445;50.774;4.944;2022-07-10T05:15:38;14.80;99.90
14709;DHT22;7445;50.774;4.944;2022-07-10T05:18:03;14.90;99.90
14709;DHT22;7445;50.774;4.944;2022-07-10T05:20:30;14.90;99.90
14709;DHT22;7445;50.774;4.944;2022-07-10T05:22:55;15.00;99.90
14709;DHT22;7445;50.774;4.944;2022-07-10T05:25:21;15.00;99.90
14709;DHT22;7445;50.774;4.944;2022-07-10T05:27:47;15.00;99.90
14709;DHT22;7445;50.774;4.944;2022-07-10T05:30:13;15.00;99.90
14709;DHT22;7445;50.774;4.944;2022-07-10T05:32:43;15.10;99.90
14709;DHT22;7445;50.774;4.944;2022-07-10T05:35:10;15.20;99.90
14709;DHT22;7445;50.774;4.944;2022-07-10T05:37:35;15.10;99.90
14709;DHT22;7445;50.774;4.944;2022-07-10T05:40:01;15.20;99.90
14709;DHT22;7445;50.774;4.944;2022-07-10T05:42:27;15.20;99.90
14709;DHT22;7445;50.774;4.944;2022-07-10T05:44:52;15.20;99.90
14709;DHT22;7445;50.774;4.944;2022-07-10T05:47:18;15.30;99.90
14709;DHT22;7445;50.774;4.944;2022-07-10T05:49:43;15.40;99.90
14709;DHT22;7445;50.774;4.944;2022-07-10T05:52:09;15.40;99.90
14709;DHT22;7445;50.774;4.944;2022-07-10T05:54:35;15.40;99.90
14709;DHT22;7445;50.774;4.944;2022-07-10T05:57:00;15.40;99.90
14709;DHT22;7445;50.774;4.944;2022-07-10T05:59:26;15.50;99.90
14709;DHT22;7445;50.774;4.944;2022-07-10T06:01:52;15.40;99.90
14709;DHT22;7445;50.774;4.944;2022-07-10T06:04:17;15.40;99.90
14709;DHT22;7445;50.774;4.944;2022-07-10T06:06:43;15.60;99.90
14709;DHT22;7445;50.774;4.944;2022-07-10T06:09:09;15.70;99.90
14709;DHT22;7445;50.774;4.944;2022-07-10T06:11:34;15.80;99.90
14709;DHT22;7445;50.774;4.944;2022-07-10T06:14:00;15.80;99.90
14709;DHT22;7445;50.774;4.944;2022-07-10T06:16:26;16.00;99.90
14709;DHT22;7445;50.774;4.944;2022-07-10T06:18:51;16.10;99.90
14709;DHT22;7445;50.774;4.944;2022-07-10T06:21:17;16.20;99.90
14709;DHT22;7445;50.774;4.944;2022-07-10T06:23:47;16.30;99.90
14709;DHT22;7445;50.774;4.944;2022-07-10T06:26:13;16.50;99.90
14709;DHT22;7445;50.774;4.944;2022-07-10T06:28:38;16.70;99.90
14709;DHT22;7445;50.774;4.944;2022-07-10T06:31:07;16.80;99.90
14709;DHT22;7445;50.774;4.944;2022-07-10T06:33:32;17.00;99.90
14709;DHT22;7445;50.774;4.944;2022-07-10T06:36:00;17.00;99.90
14709;DHT22;7445;50.774;4.944;2022-07-10T06:38:26;17.00;99.90
14709;DHT22;7445;50.774;4.944;2022-07-10T06:40:52;17.10;99.90
14709;DHT22;7445;50.774;4.944;2022-07-10T06:43:18;17.20;99.90
14709;DHT22;7445;50.774;4.944;2022-07-10T06:45:44;17.10;99.90
14709;DHT22;7445;50.774;4.944;2022-07-10T06:48:10;17.10;99.90
14709;DHT22;7445;50.774;4.944;2022-07-10T06:50:36;17.20;99.90
14709;DHT22;7445;50.774;4.944;2022-07-10T06:53:03;17.10;99.90
14709;DHT22;7445;50.774;4.944;2022-07-10T06:55:30;17.10;99.90
14709;DHT22;7445;50.774;4.944;2022-07-10T06:57:56;17.30;99.90
14709;DHT22;7445;50.774;4.944;2022-07-10T07:00:22;17.30;99.90
14709;DHT22;7445;50.774;4.944;2022-07-10T07:02:48;17.50;99.90
14709;DHT22;7445;50.774;4.944;2022-07-10T07:05:14;17.50;99.90
14709;DHT22;7445;50.774;4.944;2022-07-10T07:07:40;17.60;99.90
14709;DHT22;7445;50.774;4.944;2022-07-10T07:10:06;17.70;99.90
14709;DHT22;7445;50.774;4.944;2022-07-10T07:12:32;17.90;99.90
14709;DHT22;7445;50.774;4.944;2022-07-10T07:14:58;17.90;99.90
14709;DHT22;7445;50.774;4.944;2022-07-10T07:17:24;17.80;99.90
14709;DHT22;7445;50.774;4.944;2022-07-10T07:20:00;17.90;99.90
14709;DHT22;7445;50.774;4.944;2022-07-10T07:22:44;18.10;99.90
14709;DHT22;7445;50.774;4.944;2022-07-10T07:25:29;18.30;99.90
14709;DHT22;7445;50.774;4.944;2022-07-10T07:27:55;18.60;99.90
14709;DHT22;7445;50.774;4.944;2022-07-10T07:30:20;18.30;99.90
14709;DHT22;7445;50.774;4.944;2022-07-10T07:32:46;18.30;99.90
14709;DHT22;7445;50.774;4.944;2022-07-10T07:35:16;18.30;99.90
14709;DHT22;7445;50.774;4.944;2022-07-10T07:37:46;18.40;99.90
14709;DHT22;7445;50.774;4.944;2022-07-10T07:40:13;18.50;99.90
14709;DHT22;7445;50.774;4.944;2022-07-10T07:42:41;18.60;99.90
14709;DHT22;7445;50.774;4.944;2022-07-10T07:45:07;18.60;99.90
14709;DHT22;7445;50.774;4.944;2022-07-10T07:47:50;18.80;99.90
14709;DHT22;7445;50.774;4.944;2022-07-10T07:50:18;19.10;99.90
14709;DHT22;7445;50.774;4.944;2022-07-10T07:52:45;19.30;99.90
14709;DHT22;7445;50.774;4.944;2022-07-10T07:55:12;19.20;99.90
14709;DHT22;7445;50.774;4.944;2022-07-10T07:57:38;19.10;99.90
14709;DHT22;7445;50.774;4.944;2022-07-10T08:00:05;19.00;99.90
14709;DHT22;7445;50.774;4.944;2022-07-10T08:02:31;19.10;99.90
14709;DHT22;7445;50.774;4.944;2022-07-10T08:04:57;19.10;99.90
14709;DHT22;7445;50.774;4.944;2022-07-10T08:07:22;19.20;99.90
14709;DHT22;7445;50.774;4.944;2022-07-10T08:09:48;19.20;99.90
14709;DHT22;7445;50.774;4.944;2022-07-10T08:12:15;19.40;99.90
14709;DHT22;7445;50.774;4.944;2022-07-10T08:14:40;19.40;99.90
14709;DHT22;7445;50.774;4.944;2022-07-10T08:17:06;19.40;99.90
14709;DHT22;7445;50.774;4.944;2022-07-10T08:19:31;19.80;99.90
14709;DHT22;7445;50.774;4.944;2022-07-10T08:21:57;19.90;99.90
14709;DHT22;7445;50.774;4.944;2022-07-10T08:24:23;20.20;99.90
14709;DHT22;7445;50.774;4.944;2022-07-10T08:26:48;20.30;99.90
14709;DHT22;7445;50.774;4.944;2022-07-10T08:29:14;20.60;99.90
14709;DHT22;7445;50.774;4.944;2022-07-10T08:31:40;20.50;99.90
14709;DHT22;7445;50.774;4.944;2022-07-10T08:34:06;20.40;99.90
14709;DHT22;7445;50.774;4.944;2022-07-10T08:36:31;20.50;99.90
14709;DHT22;7445;50.774;4.944;2022-07-10T08:38:57;20.90;99.90
14709;DHT22;7445;50.774;4.944;2022-07-10T08:41:27;20.50;99.90
14709;DHT22;7445;50.774;4.944;2022-07-10T08:43:54;20.10;99.90
14709;DHT22;7445;50.774;4.944;2022-07-10T08:46:20;20.00;99.90
14709;DHT22;7445;50.774;4.944;2022-07-10T08:48:49;19.70;99.90
14709;DHT22;7445;50.774;4.944;2022-07-10T08:51:36;19.80;99.90
14709;DHT22;7445;50.774;4.944;2022-07-10T08:54:04;20.20;99.90
14709;DHT22;7445;50.774;4.944;2022-07-10T08:56:31;20.60;99.90
14709;DHT22;7445;50.774;4.944;2022-07-10T08:58:58;20.80;99.90
14709;DHT22;7445;50.774;4.944;2022-07-10T09:01:24;20.50;99.90
14709;DHT22;7445;50.774;4.944;2022-07-10T09:03:50;20.40;99.90
14709;DHT22;7445;50.774;4.944;2022-07-10T09:06:16;20.30;99.90
14709;DHT22;7445;50.774;4.944;2022-07-10T09:11:23;20.50;99.90
14709;DHT22;7445;50.774;4.944;2022-07-10T09:13:55;20.40;99.90
14709;DHT22;7445;50.774;4.944;2022-07-10T09:16:29;20.50;99.90
14709;DHT22;7445;50.774;4.944;2022-07-10T09:18:56;20.70;99.90
14709;DHT22;7445;50.774;4.944;2022-07-10T09:21:22;20.50;99.90
14709;DHT22;7445;50.774;4.944;2022-07-10T09:23:49;20.50;99.90
14709;DHT22;7445;50.774;4.944;2022-07-10T09:26:14;21.10;99.90
14709;DHT22;7445;50.774;4.944;2022-07-10T09:28:40;21.70;99.90
14709;DHT22;7445;50.774;4.944;2022-07-10T09:31:06;22.20;99.90
14709;DHT22;7445;50.774;4.944;2022-07-10T09:33:32;22.00;99.90
14709;DHT22;7445;50.774;4.944;2022-07-10T09:36:12;21.80;99.90
14709;DHT22;7445;50.774;4.944;2022-07-10T09:43:53;22.30;99.90
14709;DHT22;7445;50.774;4.944;2022-07-10T09:46:21;21.80;99.90
14709;DHT22;7445;50.774;4.944;2022-07-10T09:51:43;22.70;99.90
14709;DHT22;7445;50.774;4.944;2022-07-10T09:54:09;22.90;99.90
14709;DHT22;7445;50.774;4.944;2022-07-10T09:56:40;22.70;99.90
14709;DHT22;7445;50.774;4.944;2022-07-10T09:59:18;23.10;99.90
14709;DHT22;7445;50.774;4.944;2022-07-10T10:01:51;23.10;99.90
14709;DHT22;7445;50.774;4.944;2022-07-10T10:04:22;22.40;99.90
14709;DHT22;7445;50.774;4.944;2022-07-10T10:06:51;22.30;99.90
14709;DHT22;7445;50.774;4.944;2022-07-10T10:09:33;22.20;99.90
14709;DHT22;7445;50.774;4.944;2022-07-10T10:12:04;22.30;99.90
14709;DHT22;7445;50.774;4.944;2022-07-10T10:14:33;22.30;99.90
14709;DHT22;7445;50.774;4.944;2022-07-10T10:17:00;21.90;99.90
14709;DHT22;7445;50.774;4.944;2022-07-10T10:19:26;22.10;99.90
14709;DHT22;7445;50.774;4.944;2022-07-10T10:22:13;22.30;99.90
14709;DHT22;7445;50.774;4.944;2022-07-10T10:24:39;22.70;99.90
14709;DHT22;7445;50.774;4.944;2022-07-10T10:27:08;22.90;99.90
14709;DHT22;7445;50.774;4.944;2022-07-10T10:29:35;23.10;99.90
14709;DHT22;7445;50.774;4.944;2022-07-10T10:32:02;22.70;99.90
14709;DHT22;7445;50.774;4.944;2022-07-10T10:34:44;22.30;99.90
14709;DHT22;7445;50.774;4.944;2022-07-10T10:39:55;22.20;99.90
14709;DHT22;7445;50.774;4.944;2022-07-10T10:42:38;22.00;99.90
14709;DHT22;7445;50.774;4.944;2022-07-10T10:53:03;21.60;99.90
14709;DHT22;7445;50.774;4.944;2022-07-10T10:55:28;21.50;99.90
14709;DHT22;7445;50.774;4.944;2022-07-10T10:58:12;21.50;99.90
14709;DHT22;7445;50.774;4.944;2022-07-10T11:00:40;21.60;99.90
14709;DHT22;7445;50.774;4.944;2022-07-10T11:03:18;21.60;99.90
14709;DHT22;7445;50.774;4.944;2022-07-10T11:05:45;21.60;99.90
14709;DHT22;7445;50.774;4.944;2022-07-10T11:08:12;21.10;99.90
14709;DHT22;7445;50.774;4.944;2022-07-10T11:10:45;21.10;99.90
14709;DHT22;7445;50.774;4.944;2022-07-10T11:13:16;21.00;99.90
14709;DHT22;7445;50.774;4.944;2022-07-10T11:15:47;21.20;99.90
14709;DHT22;7445;50.774;4.944;2022-07-10T11:18:17;21.60;99.90
14709;DHT22;7445;50.774;4.944;2022-07-10T11:20:45;21.80;99.90
14709;DHT22;7445;50.774;4.944;2022-07-10T11:25:51;22.40;99.90
14709;DHT22;7445;50.774;4.944;2022-07-10T11:28:55;22.40;99.90
14709;DHT22;7445;50.774;4.944;2022-07-10T11:31:25;22.40;99.90
14709;DHT22;7445;50.774;4.944;2022-07-10T11:33:53;22.50;99.90
14709;DHT22;7445;50.774;4.944;2022-07-10T11:38:47;22.50;99.90
14709;DHT22;7445;50.774;4.944;2022-07-10T11:41:18;22.60;99.90
14709;DHT22;7445;50.774;4.944;2022-07-10T11:43:54;22.50;99.90
14709;DHT22;7445;50.774;4.944;2022-07-10T11:46:22;22.50;99.90
14709;DHT22;7445;50.774;4.944;2022-07-10T11:48:49;22.60;99.90
14709;DHT22;7445;50.774;4.944;2022-07-10T11:51:30;22.60;99.90
14709;DHT22;7445;50.774;4.944;2022-07-10T11:54:04;22.60;99.90
14709;DHT22;7445;50.774;4.944;2022-07-10T11:59:03;22.90;99.90
14709;DHT22;7445;50.774;4.944;2022-07-10T12:01:31;22.90;99.90
14709;DHT22;7445;50.774;4.944;2022-07-10T12:04:02;22.60;99.90
14709;DHT22;7445;50.774;4.944;2022-07-10T12:06:30;22.70;99.90
14709;DHT22;7445;50.774;4.944;2022-07-10T12:08:56;23.10;99.90
14709;DHT22;7445;50.774;4.944;2022-07-10T12:11:26;22.90;99.90
14709;DHT22;7445;50.774;4.944;2022-07-10T12:13:51;22.80;99.90
14709;DHT22;7445;50.774;4.944;2022-07-10T12:16:19;23.00;99.90
14709;DHT22;7445;50.774;4.944;2022-07-10T12:18:45;23.20;99.90
14709;DHT22;7445;50.774;4.944;2022-07-10T12:21:13;23.70;99.90
14709;DHT22;7445;50.774;4.944;2022-07-10T12:23:39;24.20;99.90
14709;DHT22;7445;50.774;4.944;2022-07-10T12:26:10;24.00;99.90
14709;DHT22;7445;50.774;4.944;2022-07-10T12:28:56;23.90;99.90
14709;DHT22;7445;50.774;4.944;2022-07-10T12:31:26;23.70;99.90
14709;DHT22;7445;50.774;4.944;2022-07-10T12:33:57;23.60;99.90
14709;DHT22;7445;50.774;4.944;2022-07-10T12:36:26;23.90;99.90
14709;DHT22;7445;50.774;4.944;2022-07-10T12:38:56;24.50;99.90
14709;DHT22;7445;50.774;4.944;2022-07-10T12:41:24;25.10;99.90
14709;DHT22;7445;50.774;4.944;2022-07-10T12:43:51;25.40;99.90
14709;DHT22;7445;50.774;4.944;2022-07-10T12:49:07;25.30;98.10
14709;DHT22;7445;50.774;4.944;2022-07-10T12:51:46;24.60;97.60
14709;DHT22;7445;50.774;4.944;2022-07-10T12:54:31;24.30;98.80
14709;DHT22;7445;50.774;4.944;2022-07-10T12:56:58;24.20;99.90
14709;DHT22;7445;50.774;4.944;2022-07-10T12:59:23;23.70;99.90
14709;DHT22;7445;50.774;4.944;2022-07-10T13:01:50;23.30;99.90
14709;DHT22;7445;50.774;4.944;2022-07-10T13:04:23;23.20;99.90
14709;DHT22;7445;50.774;4.944;2022-07-10T13:06:48;23.20;99.90
14709;DHT22;7445;50.774;4.944;2022-07-10T13:09:25;23.90;99.90
14709;DHT22;7445;50.774;4.944;2022-07-10T13:11:52;24.10;99.90
14709;DHT22;7445;50.774;4.944;2022-07-10T13:14:18;24.40;99.90
14709;DHT22;7445;50.774;4.944;2022-07-10T13:16:44;24.90;99.90
14709;DHT22;7445;50.774;4.944;2022-07-10T13:19:09;25.00;99.90
14709;DHT22;7445;50.774;4.944;2022-07-10T13:21:35;25.60;99.90
14709;DHT22;7445;50.774;4.944;2022-07-10T13:24:02;25.20;99.90
14709;DHT22;7445;50.774;4.944;2022-07-10T13:26:29;25.20;98.10
14709;DHT22;7445;50.774;4.944;2022-07-10T13:28:55;25.00;99.90
14709;DHT22;7445;50.774;4.944;2022-07-10T13:31:21;24.70;99.90
14709;DHT22;7445;50.774;4.944;2022-07-10T13:33:47;25.40;99.90
14709;DHT22;7445;50.774;4.944;2022-07-10T13:36:12;25.10;99.90
14709;DHT22;7445;50.774;4.944;2022-07-10T13:38:38;25.10;99.90
14709;DHT22;7445;50.774;4.944;2022-07-10T13:41:05;25.80;99.90
14709;DHT22;7445;50.774;4.944;2022-07-10T13:43:31;26.10;99.90
14709;DHT22;7445;50.774;4.944;2022-07-10T13:45:59;26.40;95.80
14709;DHT22;7445;50.774;4.944;2022-07-10T13:48:25;26.50;99.90
14709;DHT22;7445;50.774;4.944;2022-07-10T13:50:52;26.30;99.90
14709;DHT22;7445;50.774;4.944;2022-07-10T13:53:18;26.30;99.90
14709;DHT22;7445;50.774;4.944;2022-07-10T13:55:44;25.60;99.90
14709;DHT22;7445;50.774;4.944;2022-07-10T13:58:11;25.00;96.30
14709;DHT22;7445;50.774;4.944;2022-07-10T14:00:37;24.70;99.60
14709;DHT22;7445;50.774;4.944;2022-07-10T14:03:03;24.60;99.90
14709;DHT22;7445;50.774;4.944;2022-07-10T14:05:29;24.70;99.90
14709;DHT22;7445;50.774;4.944;2022-07-10T14:07:54;25.30;99.90
14709;DHT22;7445;50.774;4.944;2022-07-10T14:10:20;25.40;99.90
14709;DHT22;7445;50.774;4.944;2022-07-10T14:12:46;25.20;99.50
14709;DHT22;7445;50.774;4.944;2022-07-10T14:15:12;25.20;99.90
14709;DHT22;7445;50.774;4.944;2022-07-10T14:17:38;25.20;98.10
14709;DHT22;7445;50.774;4.944;2022-07-10T14:20:05;25.40;99.90
14709;DHT22;7445;50.774;4.944;2022-07-10T14:22:31;26.40;99.90
14709;DHT22;7445;50.774;4.944;2022-07-10T14:24:57;26.50;99.90
14709;DHT22;7445;50.774;4.944;2022-07-10T14:27:23;26.30;99.90
14709;DHT22;7445;50.774;4.944;2022-07-10T14:29:50;26.00;99.90
14709;DHT22;7445;50.774;4.944;2022-07-10T14:32:16;25.30;99.90
14709;DHT22;7445;50.774;4.944;2022-07-10T14:34:42;25.20;99.90
14709;DHT22;7445;50.774;4.944;2022-07-10T14:37:07;25.00;99.90
14709;DHT22;7445;50.774;4.944;2022-07-10T14:39:33;24.80;99.90
14709;DHT22;7445;50.774;4.944;2022-07-10T14:41:58;24.70;99.90
14709;DHT22;7445;50.774;4.944;2022-07-10T14:44:24;25.10;99.90
14709;DHT22;7445;50.774;4.944;2022-07-10T14:46:50;24.60;99.90
14709;DHT22;7445;50.774;4.944;2022-07-10T14:49:15;24.50;99.90
14709;DHT22;7445;50.774;4.944;2022-07-10T14:51:41;24.70;99.90
14709;DHT22;7445;50.774;4.944;2022-07-10T14:54:07;24.80;99.90
14709;DHT22;7445;50.774;4.944;2022-07-10T14:56:33;24.80;98.40
14709;DHT22;7445;50.774;4.944;2022-07-10T14:58:59;25.20;99.90
14709;DHT22;7445;50.774;4.944;2022-07-10T15:01:24;26.20;99.90
14709;DHT22;7445;50.774;4.944;2022-07-10T15:03:50;26.80;99.90
14709;DHT22;7445;50.774;4.944;2022-07-10T15:06:18;27.40;99.90
14709;DHT22;7445;50.774;4.944;2022-07-10T15:08:43;27.70;99.90
14709;DHT22;7445;50.774;4.944;2022-07-10T15:11:09;27.40;99.90
14709;DHT22;7445;50.774;4.944;2022-07-10T15:13:35;27.30;99.90
14709;DHT22;7445;50.774;4.944;2022-07-10T15:16:01;27.20;99.90
14709;DHT22;7445;50.774;4.944;2022-07-10T15:18:27;26.50;99.90
14709;DHT22;7445;50.774;4.944;2022-07-10T15:20:54;26.10;99.90
14709;DHT22;7445;50.774;4.944;2022-07-10T15:23:20;25.70;99.90
14709;DHT22;7445;50.774;4.944;2022-07-10T15:25:45;25.30;99.90
14709;DHT22;7445;50.774;4.944;2022-07-10T15:28:11;25.20;99.90
14709;DHT22;7445;50.774;4.944;2022-07-10T15:30:38;25.00;99.90
14709;DHT22;7445;50.774;4.944;2022-07-10T15:33:05;25.00;99.90
14709;DHT22;7445;50.774;4.944;2022-07-10T15:35:31;24.80;99.90
14709;DHT22;7445;50.774;4.944;2022-07-10T15:37:58;24.70;99.90
14709;DHT22;7445;50.774;4.944;2022-07-10T15:40:25;24.70;99.90
14709;DHT22;7445;50.774;4.944;2022-07-10T15:42:51;24.50;99.90
14709;DHT22;7445;50.774;4.944;2022-07-10T15:45:17;24.50;99.90
14709;DHT22;7445;50.774;4.944;2022-07-10T15:47:43;24.40;99.90
14709;DHT22;7445;50.774;4.944;2022-07-10T15:50:09;24.40;99.90
14709;DHT22;7445;50.774;4.944;2022-07-10T15:52:34;24.20;99.90
14709;DHT22;7445;50.774;4.944;2022-07-10T15:55:00;23.90;99.90
14709;DHT22;7445;50.774;4.944;2022-07-10T15:57:26;24.10;99.90
14709;DHT22;7445;50.774;4.944;2022-07-10T15:59:51;23.90;99.90
14709;DHT22;7445;50.774;4.944;2022-07-10T16:02:17;23.80;99.90
14709;DHT22;7445;50.774;4.944;2022-07-10T16:04:42;23.70;99.90
14709;DHT22;7445;50.774;4.944;2022-07-10T16:07:08;23.90;99.90
14709;DHT22;7445;50.774;4.944;2022-07-10T16:09:34;24.10;99.90
14709;DHT22;7445;50.774;4.944;2022-07-10T16:12:00;24.20;98.70
14709;DHT22;7445;50.774;4.944;2022-07-10T16:14:25;24.70;99.00
14709;DHT22;7445;50.774;4.944;2022-07-10T16:16:51;24.80;99.90